createdAt,value
2023-01-02T00:01:05.052Z,12.03
2023-01-02T00:04:12.924Z,10.85
2023-01-02T00:07:18.496Z,11.18
2023-01-02T00:10:23.911Z,11.03
2023-01-02T00:13:33.254Z,11.28
2023-01-02T00:16:38.848Z,13.08
2023-01-02T00:19:44.602Z,10.50
2023-01-02T00:22:49.897Z,12.23
2023-01-02T00:25:58.897Z,13.15
2023-01-02T00:29:04.731Z,11.80
2023-01-02T00:32:11.012Z,11.03
2023-01-02T00:35:16.362Z,10.63
2023-01-02T00:38:21.485Z,9.75
2023-01-02T00:41:28.276Z,9.45
2023-01-02T00:44:33.842Z,10.50
2023-01-02T00:47:40.043Z,10.85
2023-01-02T00:50:46.269Z,10.38
2023-01-02T00:53:52.606Z,10.78
2023-01-02T00:56:58.743Z,9.80
2023-01-02T01:00:04.843Z,11.48
2023-01-02T01:03:12.599Z,10.53
2023-01-02T01:06:28.443Z,10.68
2023-01-02T01:09:34.250Z,10.43
2023-01-02T01:12:42.049Z,11.05
2023-01-02T01:15:48.994Z,12.10
2023-01-02T01:18:57.278Z,12.20
2023-01-02T01:22:02.459Z,10.10
2023-01-02T01:25:09.083Z,10.00
2023-01-02T01:28:15.612Z,11.03
2023-01-02T01:31:25.624Z,10.18
2023-01-02T01:34:30.568Z,10.65
2023-01-02T01:37:37.161Z,11.00
2023-01-02T01:40:46.532Z,11.83
2023-01-02T01:44:10.349Z,13.05
2023-01-02T01:47:16.248Z,12.88
2023-01-02T01:50:46.413Z,12.65
2023-01-02T01:53:53.298Z,11.97
2023-01-02T01:57:08.076Z,12.23
2023-01-02T02:00:12.990Z,11.95
2023-01-02T02:03:26.029Z,11.38
2023-01-02T02:06:33.026Z,10.55
2023-01-02T02:09:53.554Z,10.88
2023-01-02T02:12:59.679Z,11.10
2023-01-02T02:16:34.035Z,10.15
2023-01-02T02:20:15.555Z,10.30
2023-01-02T02:23:51.682Z,10.28
2023-01-02T02:27:18.105Z,9.95
2023-01-02T02:30:36.657Z,10.68
2023-01-02T02:34:13.264Z,10.58
2023-01-02T02:37:28.867Z,11.40
2023-01-02T02:40:48.502Z,9.93
2023-01-02T02:47:29.243Z,9.80
2023-01-02T02:50:58.733Z,10.82
2023-01-02T02:54:15.422Z,10.80
2023-01-02T02:57:22.740Z,11.68
2023-01-02T03:00:32.853Z,9.30
2023-01-02T03:03:39.221Z,10.78
2023-01-02T03:06:59.400Z,10.63
2023-01-02T03:10:39.474Z,9.53
2023-01-02T03:14:15.191Z,10.30
2023-01-02T03:17:25.238Z,10.75
2023-01-02T03:20:32.530Z,10.58
2023-01-02T03:23:38.864Z,10.03
2023-01-02T03:26:46.904Z,8.88
2023-01-02T03:30:03.975Z,9.03
2023-01-02T03:33:37.198Z,8.75
2023-01-02T03:36:43.856Z,9.13
2023-01-02T03:39:51.063Z,9.08
2023-01-02T03:43:10.031Z,9.55
2023-01-02T03:46:45.793Z,10.03
2023-01-02T03:49:55.436Z,9.10
2023-01-02T03:53:00.601Z,9.90
2023-01-02T03:56:20.310Z,9.58
2023-01-02T03:59:36.279Z,9.30
2023-01-02T04:03:10.450Z,9.95
2023-01-02T04:06:23.107Z,9.25
2023-01-02T04:09:35.849Z,14.30
2023-01-02T04:12:41.661Z,12.00
2023-01-02T04:15:48.804Z,9.60
2023-01-02T04:19:01.338Z,9.80
2023-01-02T04:22:10.720Z,8.83
2023-01-02T04:25:26.164Z,9.95
2023-01-02T04:28:41.715Z,9.05
2023-01-02T04:32:20.422Z,9.90
2023-01-02T04:35:33.076Z,9.55
2023-01-02T04:38:39.200Z,9.78
2023-01-02T04:41:45.687Z,10.45
2023-01-02T04:44:52.068Z,10.20
2023-01-02T04:47:59.270Z,9.98
2023-01-02T04:51:05.642Z,10.32
2023-01-02T04:54:11.626Z,11.43
2023-01-02T04:57:17.328Z,11.20
2023-01-02T05:00:23.308Z,11.15
2023-01-02T05:03:28.335Z,10.80
2023-01-02T05:06:34.268Z,10.18
2023-01-02T05:09:39.639Z,10.32
2023-01-02T05:12:50.625Z,10.20
2023-01-02T05:15:55.824Z,11.63
2023-01-02T05:19:01.080Z,11.78
2023-01-02T05:22:24.097Z,12.10
2023-01-02T05:25:33.711Z,11.60
2023-01-02T05:28:39.275Z,11.93
2023-01-02T05:31:45.947Z,19.67
2023-01-02T05:34:52.396Z,24.27
2023-01-02T05:37:58.289Z,13.58
2023-01-02T05:41:04.270Z,10.80
2023-01-02T05:44:11.924Z,11.57
2023-01-02T05:47:16.424Z,16.07
2023-01-02T05:50:22.113Z,18.87
2023-01-02T05:53:27.103Z,34.92
2023-01-02T05:56:38.381Z,27.15
2023-01-02T05:59:44.734Z,20.15
2023-01-02T06:02:50.870Z,21.60
2023-01-02T06:06:02.375Z,24.32
2023-01-02T06:09:15.861Z,23.50
2023-01-02T06:12:22.226Z,29.45
2023-01-02T06:15:28.344Z,15.55
2023-01-02T06:18:36.638Z,14.03
2023-01-02T06:21:42.291Z,14.47
2023-01-02T06:24:46.496Z,16.20
2023-01-02T06:27:52.437Z,14.07
2023-01-02T06:30:59.057Z,13.18
2023-01-02T06:34:09.881Z,19.17
2023-01-02T06:37:15.101Z,14.20
2023-01-02T06:40:22.050Z,13.28
2023-01-02T06:43:29.051Z,12.37
2023-01-02T06:46:37.186Z,11.85
2023-01-02T06:49:46.016Z,13.20
2023-01-02T06:52:52.429Z,11.85
2023-01-02T06:56:09.105Z,10.75
2023-01-02T06:59:19.264Z,10.30
2023-01-02T07:02:28.052Z,10.68
2023-01-02T07:05:35.022Z,11.73
2023-01-02T07:08:41.354Z,11.53
2023-01-02T07:11:49.193Z,11.33
2023-01-02T07:14:55.022Z,10.43
2023-01-02T07:18:01.827Z,11.22
2023-01-02T07:21:10.723Z,26.60
2023-01-02T07:24:15.863Z,15.68
2023-01-02T07:27:21.193Z,13.05
2023-01-02T07:30:28.520Z,10.95
2023-01-02T07:33:34.278Z,11.08
2023-01-02T07:36:40.031Z,11.40
2023-01-02T07:39:47.675Z,10.35
2023-01-02T07:42:54.986Z,10.08
2023-01-02T07:46:00.514Z,10.30
2023-01-02T07:49:09.027Z,11.75
2023-01-02T07:52:16.142Z,9.95
2023-01-02T07:55:23.130Z,11.78
2023-01-02T07:58:28.981Z,16.60
2023-01-02T08:01:35.882Z,16.25
2023-01-02T08:04:43.198Z,12.18
2023-01-02T08:07:48.180Z,11.68
2023-01-02T08:10:54.982Z,12.07
2023-01-02T08:14:00.739Z,12.73
2023-01-02T08:17:06.781Z,10.85
2023-01-02T08:20:12.093Z,16.05
2023-01-02T08:23:18.511Z,13.13
2023-01-02T08:26:25.581Z,13.13
2023-01-02T08:29:32.533Z,11.50
2023-01-02T08:32:39.182Z,12.93
2023-01-02T08:35:44.886Z,12.10
2023-01-02T08:38:49.751Z,13.50
2023-01-02T08:42:02.515Z,12.75
2023-01-02T08:45:06.736Z,11.35
2023-01-02T08:48:20.675Z,10.32
2023-01-02T08:51:23.649Z,11.73
2023-01-02T08:54:29.688Z,16.93
2023-01-02T08:57:35.644Z,13.75
2023-01-02T09:00:42.679Z,14.65
2023-01-02T09:03:51.915Z,13.78
2023-01-02T09:07:00.276Z,10.98
2023-01-02T09:10:07.741Z,11.20
2023-01-02T09:13:14.200Z,10.50
2023-01-02T09:16:21.101Z,12.33
2023-01-02T09:19:27.707Z,10.18
2023-01-02T09:22:34.959Z,9.45
2023-01-02T09:25:41.882Z,11.33
2023-01-02T09:28:50.711Z,12.50
2023-01-02T09:31:56.360Z,12.55
2023-01-02T09:35:02.838Z,13.45
2023-01-02T09:38:09.393Z,11.18
2023-01-02T09:41:17.963Z,10.15
2023-01-02T09:44:39.437Z,11.85
2023-01-02T09:47:48.152Z,11.08
2023-01-02T09:50:53.592Z,10.32
2023-01-02T09:54:00.845Z,13.90
2023-01-02T09:57:17.513Z,14.47
2023-01-02T10:00:36.003Z,10.85
2023-01-02T10:03:46.232Z,14.15
2023-01-02T10:06:56.578Z,15.40
2023-01-02T10:10:10.657Z,12.40
2023-01-02T10:16:53.086Z,11.20
2023-01-02T10:20:10.215Z,11.48
2023-01-02T10:23:27.157Z,10.08
2023-01-02T10:26:35.499Z,10.28
2023-01-02T10:29:47.755Z,10.23
2023-01-02T10:32:54.896Z,9.25
2023-01-02T10:36:14.616Z,16.57
2023-01-02T10:39:44.004Z,10.28
2023-01-02T10:42:59.388Z,10.30
2023-01-02T10:46:00.875Z,9.45
2023-01-02T10:49:08.224Z,13.05
2023-01-02T10:52:21.120Z,10.08
2023-01-02T10:55:26.536Z,11.50
2023-01-02T10:58:39.817Z,18.50
2023-01-02T11:01:46.143Z,15.18
2023-01-02T11:04:52.213Z,9.55
2023-01-02T11:07:58.674Z,8.70
2023-01-02T11:11:13.662Z,8.28
2023-01-02T11:14:23.904Z,9.03
2023-01-02T11:17:37.184Z,9.95
2023-01-02T11:20:45.834Z,9.78
2023-01-02T11:23:57.842Z,9.75
2023-01-02T11:27:05.857Z,13.45
2023-01-02T11:30:11.950Z,13.03
2023-01-02T11:33:32.103Z,11.22
2023-01-02T11:36:37.819Z,9.83
2023-01-02T11:39:50.581Z,18.55
2023-01-02T11:43:16.756Z,10.10
2023-01-02T11:46:28.765Z,11.30
2023-01-02T11:49:39.610Z,13.43
2023-01-02T11:52:58.776Z,9.98
2023-01-02T11:56:17.581Z,8.93
2023-01-02T11:59:34.096Z,8.58
2023-01-02T12:02:45.660Z,8.98
2023-01-02T12:06:35.305Z,9.38
2023-01-02T12:10:25.398Z,11.28
2023-01-02T12:13:57.110Z,9.03
2023-01-02T12:17:14.680Z,9.18
2023-01-02T12:20:39.806Z,8.48
2023-01-02T12:24:17.090Z,8.40
2023-01-02T12:27:48.296Z,8.53
2023-01-02T12:31:04.650Z,8.68
2023-01-02T12:34:33.153Z,9.23
2023-01-02T12:37:52.015Z,10.18
2023-01-02T12:41:35.038Z,9.43
2023-01-02T12:44:51.518Z,9.30
2023-01-02T12:48:16.292Z,10.35
2023-01-02T12:51:33.116Z,10.00
2023-01-02T12:55:10.044Z,14.78
2023-01-02T12:58:29.510Z,17.92
2023-01-02T13:01:43.953Z,14.53
2023-01-02T13:05:05.665Z,10.70
2023-01-02T13:08:23.519Z,12.47
2023-01-02T13:11:32.412Z,14.43
2023-01-02T13:14:44.077Z,11.33
2023-01-02T13:18:15.303Z,11.57
2023-01-02T13:21:37.609Z,10.53
2023-01-02T13:24:44.176Z,10.82
2023-01-02T13:27:51.083Z,12.07
2023-01-02T13:31:44.174Z,10.95
2023-01-02T13:34:08.955Z,11.03
2023-01-02T13:37:29.840Z,13.83
2023-01-02T13:40:48.596Z,14.40
2023-01-02T13:43:53.297Z,12.80
2023-01-02T13:47:03.884Z,19.62
2023-01-02T13:50:13.819Z,25.37
2023-01-02T13:53:30.593Z,25.35
2023-01-02T13:56:40.222Z,24.87
2023-01-02T13:59:47.218Z,26.35
2023-01-02T14:02:53.999Z,26.10
2023-01-02T14:06:16.666Z,25.92
2023-01-02T14:09:37.754Z,30.80
2023-01-02T14:12:44.364Z,30.52
2023-01-02T14:15:55.026Z,35.58
2023-01-02T14:19:00.734Z,35.05
2023-01-02T14:22:23.617Z,34.88
2023-01-02T14:25:30.934Z,34.85
2023-01-02T14:28:44.510Z,36.93
2023-01-02T14:31:52.558Z,36.68
2023-01-02T14:35:02.925Z,53.50
2023-01-02T14:38:10.180Z,71.67
2023-01-02T14:41:35.849Z,52.25
2023-01-02T14:44:44.376Z,41.30
2023-01-02T14:47:56.966Z,41.65
2023-01-02T14:51:04.272Z,43.95
2023-01-02T14:54:27.834Z,82.45
2023-01-02T14:57:55.783Z,60.98
2023-01-02T15:01:04.803Z,57.48
2023-01-02T15:04:38.010Z,65.92
2023-01-02T15:07:48.158Z,94.87
2023-01-02T15:11:29.152Z,130.87
2023-01-02T15:14:35.630Z,107.60
2023-01-02T15:17:41.789Z,92.85
2023-01-02T15:20:48.488Z,73.87
2023-01-02T15:24:00.042Z,79.32
2023-01-02T15:27:06.908Z,71.62
2023-01-02T15:30:15.281Z,75.80
2023-01-02T15:33:21.148Z,71.72
2023-01-02T15:36:26.992Z,68.30
2023-01-02T15:39:27.246Z,68.22
2023-01-02T15:42:42.094Z,63.10
2023-01-02T15:45:34.740Z,64.07
2023-01-02T15:48:42.059Z,65.40
2023-01-02T15:51:49.355Z,64.82
2023-01-02T15:54:56.284Z,66.07
2023-01-02T15:58:06.446Z,72.80
2023-01-02T16:01:36.474Z,86.35
2023-01-02T16:04:46.124Z,105.78
2023-01-02T16:07:53.611Z,78.80
2023-01-02T16:11:09.975Z,79.30
2023-01-02T16:14:30.200Z,81.85
2023-01-02T16:17:46.255Z,83.47
2023-01-02T16:20:52.155Z,79.03
2023-01-02T16:23:58.324Z,83.40
2023-01-02T16:27:07.086Z,79.87
2023-01-02T16:30:15.298Z,137.20
2023-01-02T16:33:45.307Z,86.28
2023-01-02T16:36:51.370Z,81.22
2023-01-02T16:40:04.613Z,75.08
2023-01-02T16:43:10.931Z,75.57
2023-01-02T16:46:18.568Z,69.17
2023-01-02T16:49:31.571Z,70.08
2023-01-02T16:52:39.773Z,69.90
2023-01-02T16:55:44.194Z,72.62
2023-01-02T16:58:51.774Z,66.25
2023-01-02T17:01:58.549Z,69.85
2023-01-02T17:05:06.806Z,68.15
2023-01-02T17:08:13.580Z,71.22
2023-01-02T17:11:19.338Z,67.03
2023-01-02T17:14:28.325Z,64.37
2023-01-02T17:17:34.973Z,64.45
2023-01-02T17:20:42.700Z,67.05
2023-01-02T17:23:48.944Z,71.35
2023-01-02T17:26:55.034Z,69.25
2023-01-02T17:30:02.907Z,70.08
2023-01-02T17:33:08.806Z,70.70
2023-01-02T17:36:14.524Z,62.17
2023-01-02T17:39:19.229Z,62.30
2023-01-02T17:42:25.719Z,66.37
2023-01-02T17:45:33.410Z,66.00
2023-01-02T17:48:42.522Z,67.08
2023-01-02T17:51:49.258Z,66.85
2023-01-02T17:54:56.971Z,68.67
2023-01-02T17:58:02.122Z,89.10
2023-01-02T18:01:08.384Z,97.22
2023-01-02T18:04:13.893Z,111.75
2023-01-02T18:07:19.046Z,121.80
2023-01-02T18:10:32.570Z,136.18
2023-01-02T18:13:35.828Z,123.13
2023-01-02T18:16:46.768Z,90.25
2023-01-02T18:19:52.433Z,86.57
2023-01-02T18:22:57.481Z,93.47
2023-01-02T18:26:04.361Z,88.42
2023-01-02T18:29:14.170Z,93.62
2023-01-02T18:32:34.707Z,82.10
2023-01-02T18:36:00.658Z,80.97
2023-01-02T18:38:47.702Z,90.03
2023-01-02T18:41:35.588Z,95.40
2023-01-02T18:44:32.448Z,105.95
2023-01-02T18:47:43.350Z,116.12
2023-01-02T18:50:53.495Z,114.25
2023-01-02T18:54:06.584Z,113.22
2023-01-02T18:57:32.805Z,111.83
2023-01-02T19:00:44.719Z,126.22
2023-01-02T19:03:50.295Z,123.80
2023-01-02T19:07:03.708Z,112.72
2023-01-02T19:10:36.921Z,111.62
2023-01-02T19:13:43.677Z,119.87
2023-01-02T19:16:50.598Z,119.85
2023-01-02T19:19:57.321Z,115.62
2023-01-02T19:23:03.950Z,94.92
2023-01-02T19:26:09.105Z,88.85
2023-01-02T19:29:39.446Z,87.08
2023-01-02T19:32:47.719Z,81.92
2023-01-02T19:36:15.364Z,84.40
2023-01-02T19:39:41.699Z,80.17
2023-01-02T19:42:48.760Z,82.53
2023-01-02T19:45:54.729Z,79.00
2023-01-02T19:49:00.380Z,82.72
2023-01-02T19:52:07.600Z,79.07
2023-01-02T19:55:13.721Z,81.05
2023-01-02T19:58:20.857Z,101.10
2023-01-02T20:01:29.826Z,100.65
2023-01-02T20:04:37.100Z,92.88
2023-01-02T20:07:43.480Z,100.53
2023-01-02T20:10:52.117Z,104.23
2023-01-02T20:13:58.915Z,103.22
2023-01-02T20:17:07.885Z,128.55
2023-01-02T20:20:14.048Z,139.50
2023-01-02T20:23:21.012Z,134.95
2023-01-02T20:26:27.391Z,132.67
2023-01-02T20:29:33.920Z,129.32
2023-01-02T20:32:41.677Z,126.47
2023-01-02T20:35:48.193Z,123.33
2023-01-02T20:38:56.459Z,125.20
2023-01-02T20:42:01.760Z,116.67
2023-01-02T20:45:08.582Z,83.55
2023-01-02T20:48:16.363Z,78.45
2023-01-02T20:51:21.525Z,56.60
2023-01-02T20:54:27.370Z,50.03
2023-01-02T20:57:33.365Z,59.63
2023-01-02T21:00:39.773Z,72.80
2023-01-02T21:03:46.199Z,74.12
2023-01-02T21:06:53.982Z,87.88
2023-01-02T21:10:01.882Z,92.85
2023-01-02T21:13:20.118Z,102.60
2023-01-02T21:16:26.202Z,91.45
2023-01-02T21:19:31.576Z,86.55
2023-01-02T21:22:36.769Z,84.22
2023-01-02T21:25:43.267Z,74.92
2023-01-02T21:28:53.778Z,72.17
2023-01-02T21:32:00.039Z,66.57
2023-01-02T21:35:05.471Z,60.78
2023-01-02T21:38:12.044Z,61.53
2023-01-02T21:41:35.602Z,61.45
2023-01-02T21:44:42.259Z,53.55
2023-01-02T21:47:48.908Z,58.35
2023-01-02T21:50:56.802Z,61.30
2023-01-02T21:54:03.429Z,61.10
2023-01-02T21:57:10.560Z,61.63
2023-01-02T22:00:15.729Z,62.48
2023-01-02T22:03:21.067Z,63.87
2023-01-02T22:06:28.489Z,64.40
2023-01-02T22:09:37.053Z,64.47
2023-01-02T22:12:43.364Z,62.30
2023-01-02T22:15:49.770Z,63.28
2023-01-02T22:18:56.174Z,61.20
2023-01-02T22:22:03.209Z,59.35
2023-01-02T22:25:08.583Z,57.35
2023-01-02T22:28:15.469Z,57.33
2023-01-02T22:31:21.980Z,55.80
2023-01-02T22:34:29.130Z,54.27
2023-01-02T22:37:36.893Z,54.33
2023-01-02T22:40:43.751Z,52.60
2023-01-02T22:43:54.504Z,53.30
2023-01-02T22:47:04.190Z,53.95
2023-01-02T22:50:12.469Z,50.38
2023-01-02T22:53:21.525Z,51.83
2023-01-02T22:56:36.998Z,49.23
2023-01-02T22:59:43.730Z,49.23
2023-01-02T23:02:51.169Z,49.88
2023-01-02T23:05:57.680Z,49.73
2023-01-02T23:09:05.657Z,47.45
2023-01-02T23:12:11.793Z,48.30
2023-01-02T23:15:20.992Z,47.20
2023-01-02T23:18:44.740Z,50.52
2023-01-02T23:21:52.055Z,47.67
2023-01-02T23:24:57.398Z,49.90
2023-01-02T23:28:05.143Z,49.60
2023-01-02T23:31:11.095Z,50.58
2023-01-02T23:34:17.818Z,53.38
2023-01-02T23:37:23.320Z,50.80
2023-01-02T23:40:34.099Z,51.10
2023-01-02T23:43:37.114Z,53.48
2023-01-02T23:46:42.502Z,54.93
2023-01-02T23:49:48.056Z,57.35
2023-01-02T23:52:54.205Z,61.35
2023-01-02T23:56:00.605Z,61.33
2023-01-02T23:59:10.379Z,60.33
